createdAt,value
2023-05-22T00:01:38.500Z,60.09
2023-05-22T00:04:05.143Z,59.92
2023-05-22T00:06:33.542Z,60.28
2023-05-22T00:09:00.285Z,60.11
2023-05-22T00:11:26.928Z,59.96
2023-05-22T00:13:53.566Z,60.11
2023-05-22T00:16:20.461Z,60.16
2023-05-22T00:18:47.766Z,60.25
2023-05-22T00:21:16.361Z,60.22
2023-05-22T00:23:43.058Z,60.28
2023-05-22T00:26:09.812Z,60.35
2023-05-22T00:28:36.376Z,60.34
2023-05-22T00:31:03.492Z,60.33
2023-05-22T00:33:30.277Z,60.33
2023-05-22T00:35:56.980Z,60.47
2023-05-22T00:38:32.289Z,60.40
2023-05-22T00:41:00.434Z,60.38
2023-05-22T00:43:27.901Z,60.45
2023-05-22T00:45:55.747Z,60.30
2023-05-22T00:48:23.566Z,60.35
2023-05-22T00:50:51.319Z,60.45
2023-05-22T00:53:20.651Z,60.42
2023-05-22T00:55:47.546Z,60.58
2023-05-22T00:58:17.612Z,60.60
2023-05-22T01:00:45.957Z,60.58
2023-05-22T01:03:13.942Z,60.49
2023-05-22T01:05:42.648Z,60.65
2023-05-22T01:08:09.719Z,60.65
2023-05-22T01:10:39.252Z,60.60
2023-05-22T01:13:24.789Z,60.74
2023-05-22T01:16:18.174Z,60.86
2023-05-22T01:19:06.930Z,60.90
2023-05-22T01:22:20.917Z,60.83
2023-05-22T01:24:59.770Z,61.12
2023-05-22T01:27:38.386Z,61.13
2023-05-22T01:30:21.299Z,61.26
2023-05-22T01:32:48.914Z,61.23
2023-05-22T01:35:18.322Z,61.23
2023-05-22T01:37:45.443Z,61.37
2023-05-22T01:40:13.120Z,61.41
2023-05-22T01:42:40.704Z,61.42
2023-05-22T01:45:11.205Z,61.50
2023-05-22T01:47:38.376Z,61.68
2023-05-22T01:50:06.074Z,61.53
2023-05-22T01:52:47.145Z,61.58
2023-05-22T01:55:26.801Z,61.76
2023-05-22T01:58:09.060Z,61.87
2023-05-22T02:00:40.965Z,61.83
2023-05-22T02:03:18.509Z,62.04
2023-05-22T02:05:51.237Z,61.91
2023-05-22T02:08:20.669Z,62.06
2023-05-22T02:10:49.124Z,62.20
2023-05-22T02:13:16.066Z,62.26
2023-05-22T02:15:45.888Z,62.47
2023-05-22T02:18:12.842Z,62.42
2023-05-22T02:20:41.087Z,62.36
2023-05-22T02:23:08.022Z,62.87
2023-05-22T02:25:34.666Z,62.63
2023-05-22T02:28:01.329Z,62.74
2023-05-22T02:30:27.978Z,62.93
2023-05-22T02:32:56.824Z,63.16
2023-05-22T02:35:23.517Z,63.16
2023-05-22T02:37:51.422Z,62.92
2023-05-22T02:40:18.301Z,63.36
2023-05-22T02:42:45.010Z,63.21
2023-05-22T02:45:12.055Z,63.41
2023-05-22T02:47:38.683Z,63.11
2023-05-22T02:50:06.562Z,63.27
2023-05-22T02:52:34.500Z,63.35
2023-05-22T02:55:01.209Z,63.30
2023-05-22T02:57:27.900Z,63.53
2023-05-22T02:59:54.559Z,63.18
2023-05-22T03:02:21.120Z,63.63
2023-05-22T03:04:48.067Z,63.63
2023-05-22T03:07:14.659Z,63.45
2023-05-22T03:09:41.185Z,63.62
2023-05-22T03:12:08.444Z,63.64
2023-05-22T03:14:35.217Z,63.62
2023-05-22T03:17:02.358Z,63.82
2023-05-22T03:19:29.621Z,63.78
2023-05-22T03:21:56.967Z,63.76
2023-05-22T03:24:24.193Z,63.64
2023-05-22T03:26:50.928Z,63.86
2023-05-22T03:29:23.199Z,63.84
2023-05-22T03:31:49.794Z,63.75
2023-05-22T03:34:16.450Z,63.81
2023-05-22T03:36:44.789Z,63.57
2023-05-22T03:39:11.784Z,63.85
2023-05-22T03:41:43.800Z,63.81
2023-05-22T03:44:11.360Z,63.87
2023-05-22T03:46:37.950Z,63.70
2023-05-22T03:49:05.432Z,63.78
2023-05-22T03:51:32.123Z,63.95
2023-05-22T03:54:00.290Z,63.51
2023-05-22T03:56:26.984Z,63.94
2023-05-22T03:58:53.695Z,63.66
2023-05-22T04:01:21.718Z,63.88
2023-05-22T04:03:48.284Z,63.78
2023-05-22T04:06:14.982Z,63.92
2023-05-22T04:08:41.524Z,63.79
2023-05-22T04:11:08.167Z,63.77
2023-05-22T04:13:34.929Z,63.91
2023-05-22T04:16:03.084Z,63.65
2023-05-22T04:18:29.698Z,63.94
2023-05-22T04:20:56.946Z,63.87
2023-05-22T04:23:23.684Z,64.00
2023-05-22T04:25:50.991Z,63.89
2023-05-22T04:28:22.896Z,63.83
2023-05-22T04:30:49.487Z,63.97
2023-05-22T04:33:18.038Z,63.90
2023-05-22T04:35:44.900Z,63.91
2023-05-22T04:38:11.702Z,63.98
2023-05-22T04:40:38.525Z,63.84
2023-05-22T04:43:05.653Z,63.84
2023-05-22T04:45:32.348Z,63.75
2023-05-22T04:48:01.765Z,63.64
2023-05-22T04:50:33.035Z,63.63
2023-05-22T04:52:59.852Z,63.80
2023-05-22T04:55:26.705Z,63.71
2023-05-22T04:57:53.354Z,63.67
2023-05-22T05:00:25.695Z,63.49
2023-05-22T05:02:52.872Z,63.59
2023-05-22T05:05:19.673Z,62.83
2023-05-22T05:07:49.954Z,62.82
2023-05-22T05:10:17.602Z,61.96
2023-05-22T05:12:44.568Z,62.33
2023-05-22T05:15:11.252Z,62.08
2023-05-22T05:17:37.940Z,61.43
2023-05-22T05:20:06.651Z,61.70
2023-05-22T05:22:34.172Z,61.54
2023-05-22T05:25:03.617Z,61.29
2023-05-22T05:27:30.429Z,61.14
2023-05-22T05:29:57.171Z,60.24
2023-05-22T05:32:37.943Z,59.69
2023-05-22T05:35:27.472Z,59.53
2023-05-22T05:38:08.007Z,58.90
2023-05-22T05:40:35.635Z,59.35
2023-05-22T05:43:03.251Z,58.79
2023-05-22T05:45:30.123Z,58.28
2023-05-22T05:47:57.045Z,57.97
2023-05-22T05:50:26.845Z,57.08
2023-05-22T05:52:54.641Z,56.33
2023-05-22T05:55:21.575Z,56.23
2023-05-22T05:57:48.821Z,56.32
2023-05-22T06:00:22.673Z,55.62
2023-05-22T06:02:50.715Z,55.69
2023-05-22T06:05:45.249Z,55.60
2023-05-22T06:08:25.961Z,54.46
2023-05-22T06:10:52.901Z,53.89
2023-05-22T06:13:38.666Z,54.82
2023-05-22T06:16:07.190Z,53.63
2023-05-22T06:18:34.407Z,53.94
2023-05-22T06:21:01.199Z,54.42
2023-05-22T06:32:23.999Z,52.96
2023-05-22T06:34:53.313Z,52.74
2023-05-22T06:37:21.504Z,52.36
2023-05-22T06:39:49.884Z,52.61
2023-05-22T06:42:32.982Z,51.91
2023-05-22T06:45:20.110Z,50.96
2023-05-22T06:48:01.400Z,50.25
2023-05-22T06:50:31.302Z,50.85
2023-05-22T06:52:59.486Z,50.82
2023-05-22T06:55:27.873Z,49.95
2023-05-22T06:58:05.220Z,49.56
2023-05-22T07:00:36.244Z,48.78
2023-05-22T07:03:24.496Z,48.63
2023-05-22T07:06:13.777Z,48.51
2023-05-22T07:08:42.114Z,49.25
2023-05-22T07:11:10.690Z,48.05
2023-05-22T07:13:38.738Z,48.35
2023-05-22T07:16:07.974Z,48.47
2023-05-22T07:18:36.260Z,47.46
2023-05-22T07:21:04.372Z,47.17
2023-05-22T07:23:32.330Z,47.44
2023-05-22T07:26:00.974Z,46.83
2023-05-22T07:28:33.081Z,46.62
2023-05-22T07:31:05.917Z,46.41
2023-05-22T07:33:34.052Z,46.20
2023-05-22T07:36:03.195Z,47.00
2023-05-22T07:38:31.579Z,47.32
2023-05-22T07:41:04.797Z,46.84
2023-05-22T07:43:34.226Z,46.57
2023-05-22T07:46:02.461Z,46.65
2023-05-22T07:48:36.208Z,46.99
2023-05-22T07:51:04.299Z,46.09
2023-05-22T07:53:32.675Z,46.65
2023-05-22T07:56:01.351Z,47.19
2023-05-22T07:58:30.691Z,47.17
2023-05-22T08:00:58.698Z,46.40
2023-05-22T08:03:26.785Z,45.92
2023-05-22T08:05:54.857Z,46.08
2023-05-22T08:08:22.865Z,46.27
2023-05-22T08:11:03.258Z,46.85
2023-05-22T08:13:32.463Z,46.11
2023-05-22T08:16:01.560Z,45.27
2023-05-22T08:18:30.254Z,45.89
2023-05-22T08:21:00.245Z,45.12
2023-05-22T08:23:28.383Z,44.63
2023-05-22T08:25:57.179Z,45.38
2023-05-22T08:28:25.276Z,43.80
2023-05-22T08:30:55.371Z,45.05
2023-05-22T08:33:23.476Z,45.70
2023-05-22T08:35:51.666Z,45.48
2023-05-22T08:38:21.356Z,45.74
2023-05-22T08:41:00.713Z,45.00
2023-05-22T08:43:29.313Z,45.53
2023-05-22T08:46:03.311Z,44.94
2023-05-22T08:48:32.509Z,45.38
2023-05-22T08:51:05.082Z,45.34
2023-05-22T08:53:37.108Z,45.31
2023-05-22T08:56:07.010Z,44.91
2023-05-22T08:58:36.685Z,45.26
2023-05-22T09:01:07.173Z,45.35
2023-05-22T09:03:36.884Z,45.02
2023-05-22T09:06:10.563Z,44.33
2023-05-22T09:08:39.184Z,44.71
2023-05-22T09:11:07.122Z,44.63
2023-05-22T09:13:35.138Z,45.02
2023-05-22T09:16:11.786Z,43.63
2023-05-22T09:18:41.167Z,44.20
2023-05-22T09:21:22.155Z,43.65
2023-05-22T09:24:02.491Z,43.73
2023-05-22T09:26:30.553Z,43.74
2023-05-22T09:29:03.160Z,43.68
2023-05-22T09:31:31.865Z,44.59
2023-05-22T09:34:00.020Z,45.22
2023-05-22T09:36:35.640Z,45.31
2023-05-22T09:39:04.342Z,44.61
2023-05-22T09:41:40.085Z,45.42
2023-05-22T09:44:14.546Z,45.03
2023-05-22T09:46:45.345Z,44.73
2023-05-22T09:49:16.116Z,44.59
2023-05-22T09:51:49.470Z,43.89
2023-05-22T09:54:19.880Z,43.99
2023-05-22T09:56:50.481Z,43.74
2023-05-22T09:59:23.438Z,43.87
2023-05-22T10:01:53.844Z,43.72
2023-05-22T10:04:23.172Z,43.89
2023-05-22T10:06:54.140Z,43.33
2023-05-22T10:09:26.186Z,43.31
2023-05-22T10:11:57.398Z,43.00
2023-05-22T10:14:26.457Z,43.65
2023-05-22T10:16:56.892Z,43.81
2023-05-22T10:19:27.339Z,44.16
2023-05-22T10:21:57.527Z,43.50
2023-05-22T10:24:25.695Z,43.32
2023-05-22T10:26:54.983Z,42.63
2023-05-22T10:29:29.707Z,42.60
2023-05-22T10:32:08.374Z,43.28
2023-05-22T10:35:17.074Z,42.27
2023-05-22T10:37:52.125Z,42.10
2023-05-22T10:40:33.327Z,43.08
2023-05-22T10:43:04.033Z,43.24
2023-05-22T10:45:33.090Z,43.70
2023-05-22T10:48:08.409Z,43.30
2023-05-22T10:50:38.195Z,43.65
2023-05-22T10:53:26.505Z,43.51
2023-05-22T10:55:56.979Z,43.17
2023-05-22T10:58:38.866Z,43.17
2023-05-22T11:01:13.329Z,43.56
2023-05-22T11:03:55.660Z,43.21
2023-05-22T11:07:02.994Z,43.58
2023-05-22T11:09:39.015Z,42.86
2023-05-22T11:12:27.577Z,43.35
2023-05-22T11:15:02.760Z,43.57
2023-05-22T11:17:32.302Z,43.82
2023-05-22T11:20:05.712Z,44.55
2023-05-22T11:22:35.431Z,44.61
2023-05-22T11:25:07.136Z,44.22
2023-05-22T11:27:36.592Z,44.81
2023-05-22T11:30:05.325Z,44.42
2023-05-22T11:32:39.406Z,44.38
2023-05-22T11:35:10.661Z,44.11
2023-05-22T11:37:40.107Z,44.78
2023-05-22T11:40:09.619Z,44.50
2023-05-22T11:42:37.876Z,44.51
2023-05-22T11:45:22.423Z,44.31
2023-05-22T11:47:56.727Z,44.53
2023-05-22T11:50:40.174Z,44.27
2023-05-22T11:53:09.888Z,44.42
2023-05-22T11:55:37.857Z,43.52
2023-05-22T11:58:05.886Z,43.36
2023-05-22T12:00:34.047Z,43.95
2023-05-22T12:03:02.188Z,42.83
2023-05-22T12:05:33.059Z,42.67
2023-05-22T12:08:01.189Z,43.22
2023-05-22T12:10:29.145Z,42.79
2023-05-22T12:12:57.088Z,42.82
2023-05-22T12:15:25.716Z,42.79
2023-05-22T12:17:56.794Z,42.99
2023-05-22T12:20:30.500Z,43.04
2023-05-22T12:22:59.021Z,43.29
2023-05-22T12:25:36.215Z,42.66
2023-05-22T12:28:06.626Z,42.60
2023-05-22T12:30:42.308Z,42.76
2023-05-22T12:33:14.981Z,42.84
2023-05-22T12:35:43.272Z,43.59
2023-05-22T12:38:11.347Z,44.32
2023-05-22T12:40:39.496Z,44.13
2023-05-22T12:43:07.584Z,43.97
2023-05-22T12:45:36.809Z,43.60
2023-05-22T12:48:05.425Z,43.86
2023-05-22T12:50:33.651Z,44.07
2023-05-22T12:53:02.517Z,44.04
2023-05-22T12:55:31.719Z,44.41
2023-05-22T12:58:02.069Z,43.83
2023-05-22T13:00:30.720Z,43.81
2023-05-22T13:02:58.924Z,44.44
2023-05-22T13:05:27.261Z,44.53
2023-05-22T13:07:55.368Z,44.77
2023-05-22T13:10:23.962Z,44.50
2023-05-22T13:13:01.768Z,43.49
2023-05-22T13:15:38.811Z,43.92
2023-05-22T13:18:06.977Z,44.37
2023-05-22T13:20:38.676Z,44.57
2023-05-22T13:23:07.460Z,44.57
2023-05-22T13:25:35.541Z,44.47
2023-05-22T13:28:03.876Z,44.09
2023-05-22T13:30:32.337Z,44.33
2023-05-22T13:33:00.479Z,44.08
2023-05-22T13:35:28.562Z,44.47
2023-05-22T13:37:56.556Z,44.71
2023-05-22T13:40:24.587Z,45.05
2023-05-22T13:42:52.928Z,44.74
2023-05-22T13:45:20.967Z,44.75
2023-05-22T13:47:49.905Z,45.27
2023-05-22T13:53:03.653Z,45.32
2023-05-22T13:55:31.640Z,45.42
2023-05-22T13:57:59.476Z,45.53
2023-05-22T14:00:27.455Z,45.73
2023-05-22T14:02:55.680Z,45.67
2023-05-22T14:05:24.385Z,45.94
2023-05-22T14:07:52.424Z,45.99
2023-05-22T14:10:20.661Z,45.54
2023-05-22T14:12:48.717Z,45.03
2023-05-22T14:15:17.882Z,45.16
2023-05-22T14:17:46.982Z,45.31
2023-05-22T14:20:15.243Z,45.30
2023-05-22T14:22:56.602Z,45.53
2023-05-22T14:26:24.719Z,45.70
2023-05-22T14:29:25.956Z,45.78
2023-05-22T14:32:07.402Z,45.47
2023-05-22T14:34:36.408Z,45.52
2023-05-22T14:37:05.184Z,45.71
2023-05-22T14:39:35.513Z,46.06
2023-05-22T14:42:03.537Z,46.33
2023-05-22T14:44:31.477Z,46.28
2023-05-22T14:46:59.547Z,45.71
2023-05-22T14:49:35.993Z,45.72
2023-05-22T14:52:04.209Z,45.38
2023-05-22T14:54:32.911Z,45.16
2023-05-22T14:57:00.896Z,44.73
2023-05-22T14:59:28.935Z,45.10
2023-05-22T15:01:57.123Z,44.86
2023-05-22T15:04:25.445Z,45.17
2023-05-22T15:06:53.473Z,45.40
2023-05-22T15:09:21.428Z,45.26
2023-05-22T15:11:51.099Z,45.39
2023-05-22T15:14:19.389Z,45.60
2023-05-22T15:16:47.564Z,45.79
2023-05-22T15:19:16.240Z,45.71
2023-05-22T15:21:44.552Z,46.05
2023-05-22T15:24:13.414Z,46.44
2023-05-22T15:26:41.493Z,46.66
2023-05-22T15:29:11.042Z,46.44
2023-05-22T15:31:39.601Z,46.74
2023-05-22T15:34:07.675Z,46.86
2023-05-22T15:36:36.821Z,46.82
2023-05-22T15:39:04.785Z,46.96
2023-05-22T15:41:32.922Z,47.17
2023-05-22T15:44:01.233Z,46.97
2023-05-22T15:46:29.457Z,46.89
2023-05-22T15:48:57.512Z,46.84
2023-05-22T15:51:25.640Z,46.95
2023-05-22T15:53:53.583Z,47.23
2023-05-22T15:56:21.585Z,47.33
2023-05-22T15:58:49.515Z,47.46
2023-05-22T16:01:18.504Z,47.63
2023-05-22T16:03:46.852Z,47.61
2023-05-22T16:06:14.950Z,47.49
2023-05-22T16:08:42.919Z,47.59
2023-05-22T16:11:10.961Z,47.36
2023-05-22T16:13:39.104Z,47.43
2023-05-22T16:16:07.723Z,47.27
2023-05-22T16:18:35.959Z,47.52
2023-05-22T16:21:04.124Z,47.57
2023-05-22T16:23:32.164Z,47.75
2023-05-22T16:26:00.159Z,47.96
2023-05-22T16:28:28.208Z,48.17
2023-05-22T16:30:56.288Z,48.02
2023-05-22T16:33:24.279Z,48.23
2023-05-22T16:35:52.284Z,48.19
2023-05-22T16:38:20.169Z,48.20
2023-05-22T16:40:48.101Z,48.20
2023-05-22T16:43:17.275Z,48.30
2023-05-22T16:45:47.633Z,48.12
2023-05-22T16:48:15.948Z,48.37
2023-05-22T16:50:44.220Z,48.35
2023-05-22T16:53:13.170Z,48.62
2023-05-22T16:55:41.431Z,48.63
2023-05-22T16:58:11.544Z,48.88
2023-05-22T17:00:40.599Z,48.91
2023-05-22T17:03:09.881Z,49.16
2023-05-22T17:05:39.046Z,49.28
2023-05-22T17:08:07.260Z,49.35
2023-05-22T17:10:35.435Z,49.60
2023-05-22T17:13:03.905Z,49.49
2023-05-22T17:15:34.797Z,49.62
2023-05-22T17:18:03.116Z,49.90
2023-05-22T17:20:34.178Z,49.96
2023-05-22T17:23:02.278Z,49.98
2023-05-22T17:25:42.753Z,50.21
2023-05-22T17:28:10.787Z,50.14
2023-05-22T17:30:39.904Z,50.52
2023-05-22T17:33:12.324Z,50.77
2023-05-22T17:35:40.427Z,50.76
2023-05-22T17:38:08.587Z,50.83
2023-05-22T17:40:44.660Z,51.24
2023-05-22T17:43:13.874Z,51.53
2023-05-22T17:45:44.435Z,51.54
2023-05-22T17:48:14.566Z,51.70
2023-05-22T17:50:42.827Z,51.76
2023-05-22T17:53:10.980Z,52.10
2023-05-22T17:55:39.109Z,52.30
2023-05-22T17:58:07.192Z,52.38
2023-05-22T18:00:35.068Z,52.47
2023-05-22T18:03:03.108Z,52.68
2023-05-22T18:05:31.589Z,52.59
2023-05-22T18:08:00.412Z,52.89
2023-05-22T18:10:28.379Z,52.87
2023-05-22T18:12:56.559Z,53.24
2023-05-22T18:15:24.562Z,53.35
2023-05-22T18:17:53.549Z,53.52
2023-05-22T18:20:21.551Z,53.63
2023-05-22T18:22:49.779Z,53.68
2023-05-22T18:25:20.159Z,53.75
2023-05-22T18:27:48.660Z,53.92
2023-05-22T18:30:17.540Z,53.99
2023-05-22T18:32:46.613Z,54.14
2023-05-22T18:35:14.550Z,54.15
2023-05-22T18:37:42.506Z,54.30
2023-05-22T18:40:12.642Z,54.52
2023-05-22T18:42:40.830Z,54.68
2023-05-22T18:45:11.282Z,54.87
2023-05-22T18:47:40.714Z,55.20
2023-05-22T18:50:09.477Z,55.09
2023-05-22T18:52:38.076Z,55.27
2023-05-22T18:55:07.077Z,55.57
2023-05-22T18:57:35.133Z,55.64
2023-05-22T19:00:03.490Z,55.60
2023-05-22T19:02:31.521Z,55.66
2023-05-22T19:04:59.797Z,55.84
2023-05-22T19:07:28.099Z,55.72
2023-05-22T19:09:57.344Z,55.98
2023-05-22T19:12:28.474Z,56.19
2023-05-22T19:14:56.529Z,56.31
2023-05-22T19:17:24.702Z,56.38
2023-05-22T19:19:52.696Z,56.30
2023-05-22T19:22:20.652Z,56.35
2023-05-22T19:24:48.560Z,56.40
2023-05-22T19:27:17.507Z,56.29
2023-05-22T19:29:45.582Z,56.24
2023-05-22T19:32:14.636Z,56.24
2023-05-22T19:34:42.632Z,56.54
2023-05-22T19:37:11.699Z,56.38
2023-05-22T19:39:39.694Z,56.46
2023-05-22T19:42:11.339Z,56.29
2023-05-22T19:44:39.401Z,56.12
2023-05-22T19:47:07.754Z,56.22
2023-05-22T19:49:37.317Z,56.09
2023-05-22T19:52:06.801Z,56.05
2023-05-22T19:54:36.402Z,55.77
2023-05-22T19:57:05.957Z,56.02
2023-05-22T19:59:36.409Z,55.81
2023-05-22T20:02:04.940Z,55.79
2023-05-22T20:04:33.050Z,55.70
2023-05-22T20:07:03.881Z,55.98
2023-05-22T20:09:32.690Z,55.89
2023-05-22T20:12:00.947Z,55.78
2023-05-22T20:14:29.120Z,55.87
2023-05-22T20:16:58.966Z,55.83
2023-05-22T20:19:27.542Z,55.87
2023-05-22T20:21:58.271Z,55.75
2023-05-22T20:24:27.209Z,56.07
2023-05-22T20:26:56.688Z,56.07
2023-05-22T20:29:34.821Z,56.04
2023-05-22T20:32:10.914Z,56.22
2023-05-22T20:34:40.158Z,56.27
2023-05-22T20:37:09.987Z,56.27
2023-05-22T20:39:38.359Z,56.13
2023-05-22T20:42:06.564Z,56.44
2023-05-22T20:44:35.213Z,56.37
2023-05-22T20:47:03.293Z,56.41
2023-05-22T20:49:34.706Z,56.36
2023-05-22T20:52:03.225Z,56.33
2023-05-22T20:54:34.222Z,56.38
2023-05-22T20:57:02.811Z,56.41
2023-05-22T20:59:31.031Z,56.61
2023-05-22T21:01:59.119Z,56.54
2023-05-22T21:04:27.376Z,56.49
2023-05-22T21:06:55.392Z,56.40
2023-05-22T21:09:23.297Z,56.48
2023-05-22T21:11:51.262Z,56.58
2023-05-22T21:14:19.240Z,56.39
2023-05-22T21:16:47.464Z,56.42
2023-05-22T21:19:15.679Z,56.37
2023-05-22T21:21:43.753Z,56.67
2023-05-22T21:24:11.784Z,56.87
2023-05-22T21:26:40.793Z,56.78
2023-05-22T21:29:08.708Z,56.45
2023-05-22T21:31:36.840Z,56.71
2023-05-22T21:34:04.809Z,56.79
2023-05-22T21:36:32.692Z,56.79
2023-05-22T21:39:00.980Z,56.61
2023-05-22T21:41:29.004Z,56.99
2023-05-22T21:43:58.043Z,57.02
2023-05-22T21:46:26.099Z,57.04
2023-05-22T21:48:54.036Z,57.00
2023-05-22T21:51:22.028Z,56.94
2023-05-22T21:53:50.880Z,57.35
2023-05-22T21:56:18.872Z,57.13
2023-05-22T21:58:48.465Z,57.31
2023-05-22T22:01:16.493Z,57.53
2023-05-22T22:03:44.799Z,57.46
2023-05-22T22:06:12.900Z,57.47
2023-05-22T22:08:40.977Z,57.81
2023-05-22T22:11:08.994Z,57.71
2023-05-22T22:13:37.013Z,57.66
2023-05-22T22:16:05.510Z,58.04
2023-05-22T22:18:33.804Z,57.79
2023-05-22T22:21:02.229Z,58.01
2023-05-22T22:23:30.464Z,58.15
2023-05-22T22:25:58.366Z,57.95
2023-05-22T22:28:27.269Z,58.20
2023-05-22T22:30:55.315Z,58.32
2023-05-22T22:33:23.541Z,58.29
2023-05-22T22:35:52.679Z,58.15
2023-05-22T22:38:20.737Z,58.12
2023-05-22T22:40:48.731Z,58.57
2023-05-22T22:43:16.612Z,58.28
2023-05-22T22:45:44.650Z,58.68
2023-05-22T22:48:12.596Z,58.76
2023-05-22T22:50:41.221Z,58.66
2023-05-22T22:53:09.297Z,58.77
2023-05-22T22:55:37.422Z,58.92
2023-05-22T22:58:05.574Z,59.09
2023-05-22T23:00:33.589Z,59.19
2023-05-22T23:03:01.600Z,59.35
2023-05-22T23:05:29.708Z,59.65
2023-05-22T23:08:01.966Z,59.56
2023-05-22T23:10:30.106Z,59.76
2023-05-22T23:12:58.434Z,60.10
2023-05-22T23:15:26.548Z,60.17
2023-05-22T23:17:54.478Z,60.27
2023-05-22T23:20:22.556Z,60.45
2023-05-22T23:22:51.320Z,60.52
2023-05-22T23:25:19.317Z,60.58
2023-05-22T23:27:47.380Z,60.67
2023-05-22T23:30:15.633Z,60.84
2023-05-22T23:32:43.597Z,60.48
2023-05-22T23:35:11.674Z,60.72
2023-05-22T23:37:39.762Z,60.79
2023-05-22T23:40:08.977Z,60.89
2023-05-22T23:42:37.473Z,61.12
2023-05-22T23:45:05.894Z,60.95
2023-05-22T23:47:33.909Z,60.94
2023-05-22T23:50:02.037Z,61.13
2023-05-22T23:52:30.080Z,60.80
2023-05-22T23:54:58.383Z,60.90
2023-05-22T23:57:26.261Z,60.68
2023-05-22T23:59:54.271Z,60.75
